Time;durP1;ratioP1;P1;durP2;ratioP2;P2;SDS_P1;SDS_P2;PMS_P1;PMS_P2;Temp;Humidity;BMP_temperature;BMP_pressure;BME280_temperature;BME280_humidity;BME280_pressure;Samples;Min_cycle;Max_cycle;Signal;HPM_P1;HPM_P2
2021/12/27 00:02:23;;;;;;;;;13.33;8.33;;;;;;;;5003746;28;46911;-68
2021/12/27 00:04:48;;;;;;;;;12.33;12.00;;;;;;;;5024549;28;45401;-68
2021/12/27 00:07:14;;;;;;;;;9.33;8.00;;;;;;;;5025646;28;45326;-68
2021/12/27 00:09:40;;;;;;;;;12.00;7.00;;;;;;;;5023428;28;45441;-68
2021/12/27 00:12:05;;;;;;;;;10.67;10.67;;;;;;;;5024943;28;45236;-68
2021/12/27 00:14:31;;;;;;;;;11.67;9.00;;;;;;;;5001007;28;45854;-68
2021/12/27 00:16:56;;;;;;;;;7.33;7.33;;;;;;;;5004118;28;45417;-69
2021/12/27 00:19:21;;;;;;;;;3.67;2.33;;;;;;;;5022296;28;45442;-66
2021/12/27 00:21:46;;;;;;;;;9.00;9.00;;;;;;;;5025161;28;46482;-66
2021/12/27 00:24:11;;;;;;;;;9.00;9.00;;;;;;;;5006070;28;45386;-66
2021/12/27 00:26:37;;;;;;;;;8.00;7.33;;;;;;;;5025093;28;45516;-66
2021/12/27 00:29:02;;;;;;;;;7.33;6.00;;;;;;;;5007840;28;45611;-66
2021/12/27 00:31:27;;;;;;;;;8.00;5.00;;;;;;;;5024846;28;45515;-67
2021/12/27 00:33:53;;;;;;;;;5.00;5.00;;;;;;;;5006455;28;45376;-67
2021/12/27 00:36:18;;;;;;;;;3.67;3.67;;;;;;;;5001593;28;45547;-67
2021/12/27 00:38:43;;;;;;;;;3.00;3.00;;;;;;;;5015626;28;45381;-67
2021/12/27 00:41:08;;;;;;;;;4.33;4.33;;;;;;;;5024810;28;46451;-68
2021/12/27 00:43:34;;;;;;;;;6.00;3.00;;;;;;;;5024301;28;45411;-67
2021/12/27 00:45:59;;;;;;;;;6.00;4.00;;;;;;;;5024850;28;45290;-67
2021/12/27 00:48:25;;;;;;;;;4.00;4.00;;;;;;;;5004934;28;45372;-68
2021/12/27 00:50:50;;;;;;;;;4.67;3.00;;;;;;;;5006599;28;47518;-67
2021/12/27 00:53:15;;;;;;;;;6.33;3.00;;;;;;;;5006183;28;45447;-67
2021/12/27 00:55:40;;;;;;;;;2.33;2.33;;;;;;;;5024415;28;45360;-67
2021/12/27 00:58:06;;;;;;;;;1.00;1.00;;;;;;;;5025513;28;45524;-67
2021/12/27 01:00:31;;;;;;;;;3.00;2.00;;;;;;;;5023605;28;46531;-67
2021/12/27 01:02:56;;;;;;;;;2.00;2.00;;;;;;;;5024843;28;45315;-67
2021/12/27 01:05:23;;;;;;;;;4.00;2.00;;;;;;;;5023674;28;45370;-66
2021/12/27 01:07:48;;;;;;;;;5.00;5.00;;;;;;;;5024907;28;45151;-67
2021/12/27 01:13:03;;;;;;;;;5.00;3.00;;;;;;;;5024377;28;45259;-67
2021/12/27 01:18:06;;;;;;;;;2.67;2.67;;;;;;;;5024913;28;45308;-67
2021/12/27 01:20:31;;;;;;;;;1.67;1.00;;;;;;;;5023354;28;45386;-67
2021/12/27 01:22:56;;;;;;;;;2.00;2.00;;;;;;;;5024093;28;45272;-67
2021/12/27 01:25:22;;;;;;;;;2.00;2.00;;;;;;;;5023385;28;45480;-67
2021/12/27 01:27:47;;;;;;;;;1.67;1.67;;;;;;;;5024549;28;45162;-67
2021/12/27 01:30:19;;;;;;;;;2.00;1.67;;;;;;;;5002178;28;47383;-67
2021/12/27 01:32:49;;;;;;;;;2.67;2.67;;;;;;;;5023891;28;45409;-67
2021/12/27 01:35:14;;;;;;;;;3.00;2.00;;;;;;;;5023288;28;45437;-67
2021/12/27 01:37:40;;;;;;;;;2.00;2.00;;;;;;;;5022918;28;45352;-67
2021/12/27 01:40:06;;;;;;;;;1.33;1.33;;;;;;;;5023216;28;46796;-67
2021/12/27 01:42:31;;;;;;;;;5.00;2.00;;;;;;;;5024036;28;45295;-67
2021/12/27 01:44:56;;;;;;;;;2.00;2.00;;;;;;;;5023234;28;45416;-67
2021/12/27 01:47:22;;;;;;;;;3.00;1.33;;;;;;;;5024129;28;45513;-67
2021/12/27 01:49:47;;;;;;;;;2.00;2.00;;;;;;;;5022923;28;46149;-67
2021/12/27 01:52:12;;;;;;;;;2.33;2.33;;;;;;;;5024046;28;45211;-67
2021/12/27 01:54:37;;;;;;;;;1.67;1.67;;;;;;;;5005001;28;45453;-68
2021/12/27 01:57:03;;;;;;;;;2.00;2.00;;;;;;;;5006508;28;45461;-67
2021/12/27 01:59:28;;;;;;;;;3.33;2.00;;;;;;;;5022711;28;45419;-67
2021/12/27 02:01:54;;;;;;;;;1.00;1.00;;;;;;;;5023792;28;45348;-67
2021/12/27 02:04:19;;;;;;;;;1.00;1.00;;;;;;;;5023069;28;45441;-68
2021/12/27 02:06:44;;;;;;;;;1.33;1.33;;;;;;;;5006294;28;45408;-67
2021/12/27 02:09:10;;;;;;;;;1.67;1.67;;;;;;;;5004625;28;47596;-67
2021/12/27 02:11:35;;;;;;;;;3.00;3.00;;;;;;;;5023574;28;45389;-68
2021/12/27 02:14:04;;;;;;;;;3.00;2.33;;;;;;;;5022712;28;45367;-67
2021/12/27 02:16:30;;;;;;;;;1.00;1.00;;;;;;;;5022603;28;45450;-67
2021/12/27 02:18:55;;;;;;;;;3.67;2.00;;;;;;;;5022415;28;45488;-67
2021/12/27 02:21:21;;;;;;;;;1.67;1.67;;;;;;;;5003564;28;45352;-67
2021/12/27 02:23:48;;;;;;;;;1.00;1.00;;;;;;;;5022625;28;45132;-67
2021/12/27 02:26:14;;;;;;;;;3.00;3.00;;;;;;;;5019734;28;45284;-68
2021/12/27 02:28:39;;;;;;;;;2.67;2.67;;;;;;;;5022346;28;45370;-68
2021/12/27 02:31:05;;;;;;;;;2.00;2.00;;;;;;;;5023183;28;45386;-67
2021/12/27 02:33:30;;;;;;;;;1.00;1.00;;;;;;;;5022756;28;45290;-67
2021/12/27 02:35:56;;;;;;;;;2.00;2.00;;;;;;;;5023443;28;45324;-68
2021/12/27 02:38:23;;;;;;;;;1.67;1.67;;;;;;;;5004414;28;47653;-67
2021/12/27 02:40:51;;;;;;;;;1.00;1.00;;;;;;;;5021924;28;45324;-67
2021/12/27 02:43:17;;;;;;;;;1.00;1.00;;;;;;;;5021957;28;45287;-69
2021/12/27 02:45:44;;;;;;;;;2.33;1.00;;;;;;;;5022555;28;45639;-68
2021/12/27 02:48:10;;;;;;;;;2.00;2.00;;;;;;;;5023015;28;47436;-67
2021/12/27 02:50:36;;;;;;;;;2.67;2.67;;;;;;;;5021904;28;45307;-67
2021/12/27 02:53:02;;;;;;;;;1.33;1.33;;;;;;;;5022990;28;45377;-67
2021/12/27 02:55:28;;;;;;;;;1.00;1.00;;;;;;;;5022434;28;45294;-67
2021/12/27 02:57:53;;;;;;;;;2.00;2.00;;;;;;;;5021691;28;47266;-68
2021/12/27 03:00:27;;;;;;;;;1.33;1.33;;;;;;;;5003300;28;45468;-67
2021/12/27 03:02:53;;;;;;;;;4.00;4.00;;;;;;;;5013356;28;45371;-67
2021/12/27 03:05:19;;;;;;;;;2.00;2.00;;;;;;;;5022356;28;45233;-66
2021/12/27 03:07:46;;;;;;;;;3.00;3.00;;;;;;;;5022444;28;46157;-67
2021/12/27 03:10:12;;;;;;;;;4.00;3.33;;;;;;;;5003899;28;45423;-67
2021/12/27 03:12:38;;;;;;;;;2.67;2.00;;;;;;;;5023009;28;45220;-66
2021/12/27 03:15:07;;;;;;;;;3.00;3.00;;;;;;;;5022208;28;45336;-67
2021/12/27 03:17:33;;;;;;;;;3.00;3.00;;;;;;;;5022620;28;46294;-67
2021/12/27 03:19:58;;;;;;;;;3.67;3.67;;;;;;;;5000502;28;45748;-67
2021/12/27 03:22:23;;;;;;;;;4.33;3.33;;;;;;;;4997883;28;45392;-67
2021/12/27 03:24:48;;;;;;;;;3.00;3.00;;;;;;;;5018422;28;45557;-67
2021/12/27 03:27:13;;;;;;;;;10.50;4.00;;;;;;;;5022586;28;46790;-67
2021/12/27 03:29:39;;;;;;;;;5.00;3.33;;;;;;;;5021614;28;45457;-67
2021/12/27 03:32:04;;;;;;;;;3.00;2.67;;;;;;;;5022915;28;45246;-67
2021/12/27 03:34:32;;;;;;;;;3.33;3.33;;;;;;;;5022104;28;45276;-68
2021/12/27 03:36:57;;;;;;;;;2.00;2.00;;;;;;;;5022510;28;45478;-67
2021/12/27 03:39:22;;;;;;;;;3.67;3.33;;;;;;;;5019802;28;45511;-67
2021/12/27 03:41:47;;;;;;;;;3.00;2.00;;;;;;;;5022553;28;45428;-67
2021/12/27 03:44:14;;;;;;;;;4.00;2.67;;;;;;;;5022004;28;45361;-68
2021/12/27 03:46:39;;;;;;;;;6.00;3.00;;;;;;;;5022159;28;46318;-67
2021/12/27 03:49:04;;;;;;;;;2.33;2.33;;;;;;;;5021362;28;45293;-67
2021/12/27 03:51:29;;;;;;;;;5.67;3.00;;;;;;;;5022510;28;45354;-67
2021/12/27 03:53:55;;;;;;;;;3.33;3.00;;;;;;;;5021541;28;45395;-67
2021/12/27 03:56:23;;;;;;;;;4.00;4.00;;;;;;;;5022107;28;45438;-67
2021/12/27 03:58:55;;;;;;;;;3.00;3.00;;;;;;;;5021484;28;45389;-67
2021/12/27 04:01:21;;;;;;;;;4.67;2.33;;;;;;;;5018865;28;45402;-67
2021/12/27 04:03:48;;;;;;;;;2.67;2.33;;;;;;;;5021693;28;45590;-67
2021/12/27 04:06:14;;;;;;;;;3.00;2.00;;;;;;;;5021827;28;46649;-67
2021/12/27 04:08:39;;;;;;;;;5.33;2.00;;;;;;;;5020755;28;45284;-67
2021/12/27 04:11:05;;;;;;;;;3.67;3.67;;;;;;;;5023717;28;45408;-67
2021/12/27 04:13:30;;;;;;;;;5.67;3.33;;;;;;;;5025190;28;45422;-67
2021/12/27 04:15:55;;;;;;;;;5.00;3.00;;;;;;;;5003666;28;47028;-67
2021/12/27 04:18:21;;;;;;;;;9.33;5.00;;;;;;;;5021242;28;45303;-68
2021/12/27 04:20:46;;;;;;;;;4.00;2.67;;;;;;;;5024584;28;45256;-67
2021/12/27 04:23:12;;;;;;;;;6.00;4.33;;;;;;;;5023086;28;45452;-67
2021/12/27 04:25:37;;;;;;;;;5.00;4.00;;;;;;;;5023825;28;45630;-68
2021/12/27 04:28:02;;;;;;;;;4.00;4.00;;;;;;;;5025097;28;45553;-67
2021/12/27 04:30:28;;;;;;;;;4.00;4.00;;;;;;;;5024295;28;45458;-68
2021/12/27 04:32:53;;;;;;;;;8.00;5.33;;;;;;;;5007848;28;45616;-67
2021/12/27 04:35:19;;;;;;;;;6.00;4.00;;;;;;;;5024021;28;46627;-68
2021/12/27 04:37:45;;;;;;;;;5.33;4.33;;;;;;;;5024566;28;45311;-68
2021/12/27 04:40:11;;;;;;;;;7.33;5.00;;;;;;;;5024312;28;45312;-67
2021/12/27 04:42:38;;;;;;;;;5.00;4.00;;;;;;;;5025554;28;45408;-68
2021/12/27 04:45:04;;;;;;;;;7.00;5.00;;;;;;;;5024023;28;46389;-68
2021/12/27 04:47:29;;;;;;;;;4.00;3.67;;;;;;;;5024816;28;45315;-68
2021/12/27 04:49:54;;;;;;;;;5.33;3.33;;;;;;;;5024078;28;45311;-68
2021/12/27 04:52:19;;;;;;;;;7.33;4.67;;;;;;;;5023910;28;45169;-68
2021/12/27 04:54:44;;;;;;;;;4.00;4.00;;;;;;;;5024019;28;45639;-67
2021/12/27 04:57:10;;;;;;;;;4.33;4.00;;;;;;;;5024842;28;45612;-68
2021/12/27 04:59:35;;;;;;;;;5.67;4.00;;;;;;;;5024123;28;45465;-67
2021/12/27 05:02:01;;;;;;;;;7.67;5.67;;;;;;;;5025166;28;45378;-67
2021/12/27 05:04:26;;;;;;;;;6.33;4.67;;;;;;;;5005985;28;47383;-68
2021/12/27 05:06:52;;;;;;;;;12.00;7.33;;;;;;;;5023093;28;45552;-67
2021/12/27 05:09:17;;;;;;;;;56.50;45.25;;;;;;;;5023246;28;45523;-67
2021/12/27 05:11:42;;;;;;;;;10.33;7.00;;;;;;;;5025051;28;45220;-67
2021/12/27 05:14:08;;;;;;;;;8.67;6.00;;;;;;;;5023609;28;45570;-68
2021/12/27 05:16:33;;;;;;;;;2.33;2.00;;;;;;;;5024432;28;45401;-68
2021/12/27 05:18:58;;;;;;;;;9.00;5.67;;;;;;;;5005811;28;45702;-68
2021/12/27 05:21:24;;;;;;;;;9.33;6.33;;;;;;;;5005301;28;45488;-68
2021/12/27 05:23:49;;;;;;;;;10.00;5.67;;;;;;;;5022493;28;46482;-68
2021/12/27 05:26:14;;;;;;;;;8.00;6.33;;;;;;;;5006140;28;45608;-68
2021/12/27 05:28:39;;;;;;;;;9.00;5.00;;;;;;;;5023546;28;45624;-67
2021/12/27 05:31:05;;;;;;;;;5.67;4.33;;;;;;;;5024417;28;45493;-68
2021/12/27 05:33:30;;;;;;;;;8.33;6.00;;;;;;;;5023510;28;45564;-67
2021/12/27 05:35:55;;;;;;;;;5.67;5.00;;;;;;;;5023867;28;45300;-67
2021/12/27 05:38:21;;;;;;;;;6.00;4.67;;;;;;;;5023600;28;45366;-67
2021/12/27 05:40:46;;;;;;;;;9.00;4.33;;;;;;;;5024072;28;45350;-67
2021/12/27 05:43:11;;;;;;;;;7.00;5.67;;;;;;;;5024163;28;46321;-67
2021/12/27 05:45:37;;;;;;;;;7.33;5.33;;;;;;;;5005122;28;45378;-67
2021/12/27 05:48:02;;;;;;;;;8.67;5.33;;;;;;;;5024284;28;45435;-68
2021/12/27 05:50:28;;;;;;;;;8.00;7.67;;;;;;;;5023158;28;45402;-67
2021/12/27 05:52:53;;;;;;;;;5.67;5.33;;;;;;;;5005658;28;47513;-67
2021/12/27 05:55:18;;;;;;;;;8.00;8.00;;;;;;;;5022755;28;45394;-67
2021/12/27 05:57:44;;;;;;;;;9.33;5.00;;;;;;;;5023923;28;45327;-68
2021/12/27 06:00:10;;;;;;;;;5.00;5.00;;;;;;;;5005495;28;45641;-68
2021/12/27 06:02:35;;;;;;;;;6.67;6.00;;;;;;;;5005769;28;47431;-67
2021/12/27 06:05:01;;;;;;;;;9.67;7.33;;;;;;;;5022533;28;45393;-68
2021/12/27 06:07:26;;;;;;;;;19.33;11.00;;;;;;;;5023590;28;45299;-67
2021/12/27 06:09:52;;;;;;;;;11.00;8.00;;;;;;;;5022709;28;45406;-67
2021/12/27 06:12:17;;;;;;;;;7.67;7.67;;;;;;;;5023259;28;45504;-67
2021/12/27 06:14:42;;;;;;;;;11.00;6.33;;;;;;;;5022610;28;45240;-67
2021/12/27 06:17:07;;;;;;;;;6.33;5.67;;;;;;;;5016696;28;45260;-68
2021/12/27 06:19:33;;;;;;;;;22.33;19.00;;;;;;;;5022632;28;45452;-68
2021/12/27 06:21:58;;;;;;;;;37.25;36.00;;;;;;;;5023380;28;45363;-68
2021/12/27 06:24:23;;;;;;;;;35.25;32.75;;;;;;;;5021927;28;45455;-68
2021/12/27 06:26:49;;;;;;;;;44.75;36.50;;;;;;;;5023035;28;45333;-68
2021/12/27 06:29:14;;;;;;;;;31.00;28.00;;;;;;;;5022545;28;45518;-68
2021/12/27 06:31:39;;;;;;;;;18.33;17.00;;;;;;;;5023158;28;46682;-68
2021/12/27 06:34:04;;;;;;;;;17.67;16.00;;;;;;;;5021158;28;45429;-68
2021/12/27 06:36:30;;;;;;;;;17.67;16.67;;;;;;;;5023185;28;45350;-68
2021/12/27 06:38:55;;;;;;;;;11.33;11.33;;;;;;;;5022118;28;45248;-68
2021/12/27 06:41:22;;;;;;;;;13.33;12.00;;;;;;;;5022789;28;45616;-68
2021/12/27 06:43:47;;;;;;;;;9.33;9.33;;;;;;;;5021348;28;45385;-67
2021/12/27 06:46:12;;;;;;;;;15.33;10.00;;;;;;;;5022872;28;45383;-67
2021/12/27 06:48:37;;;;;;;;;10.00;7.00;;;;;;;;5022476;28;45614;-67
2021/12/27 06:51:03;;;;;;;;;5.33;5.00;;;;;;;;5022759;28;46281;-67
2021/12/27 06:53:30;;;;;;;;;3.67;2.00;;;;;;;;5021960;28;45302;-68
2021/12/27 06:55:56;;;;;;;;;8.00;6.67;;;;;;;;5022517;28;45458;-67
2021/12/27 06:58:21;;;;;;;;;7.67;7.33;;;;;;;;5022742;28;45251;-67
2021/12/27 07:00:46;;;;;;;;;8.00;5.67;;;;;;;;5022140;28;45270;-69
2021/12/27 07:03:14;;;;;;;;;8.00;8.00;;;;;;;;5022775;28;45399;-67
2021/12/27 07:05:39;;;;;;;;;9.67;7.67;;;;;;;;5021703;28;45479;-67
2021/12/27 07:08:05;;;;;;;;;5.00;5.00;;;;;;;;5022751;28;45374;-67
2021/12/27 07:10:31;;;;;;;;;8.67;6.33;;;;;;;;5021375;28;45653;-67
2021/12/27 07:12:56;;;;;;;;;9.00;7.00;;;;;;;;5022371;28;45382;-67
2021/12/27 07:15:21;;;;;;;;;5.67;5.00;;;;;;;;4998025;28;45350;-67
2021/12/27 07:17:46;;;;;;;;;6.00;6.00;;;;;;;;5004899;28;45510;-67
2021/12/27 07:20:12;;;;;;;;;11.00;10.00;;;;;;;;5020775;28;46211;-67
2021/12/27 07:22:37;;;;;;;;;9.33;8.00;;;;;;;;5022079;28;45232;-67
2021/12/27 07:25:03;;;;;;;;;10.67;8.33;;;;;;;;5021320;28;45422;-67
2021/12/27 07:27:28;;;;;;;;;12.00;8.00;;;;;;;;5022408;28;45509;-67
2021/12/27 07:29:54;;;;;;;;;8.67;5.00;;;;;;;;5020706;28;46499;-67
2021/12/27 07:32:19;;;;;;;;;9.33;6.00;;;;;;;;5020585;28;45611;-67
2021/12/27 07:34:45;;;;;;;;;7.00;4.67;;;;;;;;5021041;28;45398;-67
2021/12/27 07:37:11;;;;;;;;;5.00;4.67;;;;;;;;5021864;28;45520;-67
2021/12/27 07:39:36;;;;;;;;;5.67;5.00;;;;;;;;5000512;28;48301;-67
2021/12/27 07:42:01;;;;;;;;;4.67;4.00;;;;;;;;5021612;28;45251;-67
2021/12/27 07:44:26;;;;;;;;;7.00;7.00;;;;;;;;5020835;28;45665;-67
2021/12/27 07:46:52;;;;;;;;;6.67;6.33;;;;;;;;5024641;28;45287;-67
2021/12/27 07:49:18;;;;;;;;;7.00;7.00;;;;;;;;5022250;28;47405;-67
2021/12/27 07:51:43;;;;;;;;;7.67;3.33;;;;;;;;5023510;28;45426;-68
2021/12/27 07:54:09;;;;;;;;;5.67;5.00;;;;;;;;5022773;28;45422;-68
2021/12/27 07:56:34;;;;;;;;;10.33;6.00;;;;;;;;5025408;28;45428;-68
2021/12/27 07:59:03;;;;;;;;;5.00;5.00;;;;;;;;5024364;28;46271;-68
2021/12/27 08:01:29;;;;;;;;;7.33;5.00;;;;;;;;5025600;28;45316;-68
2021/12/27 08:03:55;;;;;;;;;8.00;8.00;;;;;;;;5024581;28;45559;-68
2021/12/27 08:06:20;;;;;;;;;9.33;7.00;;;;;;;;5007708;28;45289;-67
2021/12/27 08:08:45;;;;;;;;;5.00;3.67;;;;;;;;5005474;28;46409;-67
2021/12/27 08:11:10;;;;;;;;;5.00;5.00;;;;;;;;5003780;28;45357;-67
2021/12/27 08:13:37;;;;;;;;;9.67;5.67;;;;;;;;5022484;28;45398;-67
2021/12/27 08:16:02;;;;;;;;;10.00;8.67;;;;;;;;5025417;28;45318;-67
2021/12/27 08:18:29;;;;;;;;;5.00;5.00;;;;;;;;5024002;28;46327;-67
2021/12/27 08:20:55;;;;;;;;;5.33;3.67;;;;;;;;5005806;28;45296;-68
2021/12/27 08:23:20;;;;;;;;;4.00;3.67;;;;;;;;5023486;28;45356;-68
2021/12/27 08:25:45;;;;;;;;;7.67;4.67;;;;;;;;5006170;28;45300;-67
2021/12/27 08:28:10;;;;;;;;;3.33;3.33;;;;;;;;5024399;28;45319;-68
2021/12/27 08:30:36;;;;;;;;;6.33;4.33;;;;;;;;5005965;28;45498;-67
2021/12/27 08:33:01;;;;;;;;;6.33;6.33;;;;;;;;5007172;28;45389;-68
2021/12/27 08:35:27;;;;;;;;;5.33;4.00;;;;;;;;5023836;28;45291;-67
2021/12/27 08:37:52;;;;;;;;;4.00;4.00;;;;;;;;5024246;28;46658;-67
2021/12/27 08:40:17;;;;;;;;;4.67;4.67;;;;;;;;5005734;28;45922;-67
2021/12/27 08:42:43;;;;;;;;;3.67;3.67;;;;;;;;5024849;28;45295;-67
2021/12/27 08:45:09;;;;;;;;;3.67;3.67;;;;;;;;5024091;28;45203;-67
2021/12/27 08:47:34;;;;;;;;;5.00;3.00;;;;;;;;5024815;28;45488;-68
2021/12/27 08:50:00;;;;;;;;;5.00;5.00;;;;;;;;5023664;28;45322;-68
2021/12/27 08:52:25;;;;;;;;;2.67;2.67;;;;;;;;5006322;28;45329;-67
2021/12/27 08:54:51;;;;;;;;;4.00;4.00;;;;;;;;5023736;28;45340;-67
2021/12/27 08:57:16;;;;;;;;;8.33;4.00;;;;;;;;5023168;28;45597;-67
2021/12/27 08:59:41;;;;;;;;;6.00;4.33;;;;;;;;5001303;28;45367;-67
2021/12/27 09:02:07;;;;;;;;;5.67;4.00;;;;;;;;5024508;28;45506;-67
2021/12/27 09:04:32;;;;;;;;;4.33;4.33;;;;;;;;5003195;28;45476;-68
2021/12/27 09:06:58;;;;;;;;;6.33;5.00;;;;;;;;5024213;28;45387;-67
2021/12/27 09:09:23;;;;;;;;;5.67;3.00;;;;;;;;5005108;28;45484;-67
2021/12/27 09:11:48;;;;;;;;;5.00;3.00;;;;;;;;5023388;28;45351;-67
2021/12/27 09:14:14;;;;;;;;;6.33;6.33;;;;;;;;5023571;28;45468;-67
2021/12/27 09:16:39;;;;;;;;;7.00;5.00;;;;;;;;5023706;28;45682;-67
2021/12/27 09:19:04;;;;;;;;;5.33;4.00;;;;;;;;5023063;28;45240;-67
2021/12/27 09:21:30;;;;;;;;;6.33;4.67;;;;;;;;5005605;28;45430;-67
2021/12/27 09:23:55;;;;;;;;;8.00;4.00;;;;;;;;5023223;28;45656;-67
2021/12/27 09:26:20;;;;;;;;;3.00;3.00;;;;;;;;5023844;28;45474;-68
2021/12/27 09:28:45;;;;;;;;;8.33;7.00;;;;;;;;5022908;28;45512;-68
2021/12/27 09:31:10;;;;;;;;;7.67;7.67;;;;;;;;5024025;28;45739;-67
2021/12/27 09:33:36;;;;;;;;;9.33;5.33;;;;;;;;5023609;28;45320;-67
2021/12/27 09:36:01;;;;;;;;;5.67;5.67;;;;;;;;5023546;28;45562;-67
2021/12/27 09:38:26;;;;;;;;;7.33;5.00;;;;;;;;5023208;28;45354;-67
2021/12/27 09:40:52;;;;;;;;;6.67;4.00;;;;;;;;5023841;28;45291;-67
2021/12/27 09:43:17;;;;;;;;;3.00;3.00;;;;;;;;5024530;28;45628;-67
2021/12/27 09:45:43;;;;;;;;;2.67;2.67;;;;;;;;5022410;28;45702;-67
2021/12/27 09:48:08;;;;;;;;;3.33;3.33;;;;;;;;5023723;28;45327;-67
2021/12/27 09:50:37;;;;;;;;;4.00;4.00;;;;;;;;5022696;28;45389;-67
2021/12/27 09:53:02;;;;;;;;;8.67;4.00;;;;;;;;5024005;28;45514;-67
2021/12/27 09:55:28;;;;;;;;;4.00;4.00;;;;;;;;5022470;28;46513;-67
2021/12/27 09:57:53;;;;;;;;;4.67;4.00;;;;;;;;5005584;28;45438;-68
2021/12/27 10:00:18;;;;;;;;;3.00;3.00;;;;;;;;4998983;28;45389;-67
2021/12/27 10:02:45;;;;;;;;;3.00;3.00;;;;;;;;5002625;28;45344;-67
2021/12/27 10:05:11;;;;;;;;;7.00;7.00;;;;;;;;4996808;28;47080;-67
2021/12/27 10:07:41;;;;;;;;;1.00;1.00;;;;;;;;5022444;28;45318;-68
2021/12/27 10:10:07;;;;;;;;;4.00;4.00;;;;;;;;5021351;28;45367;-67
2021/12/27 10:12:33;;;;;;;;;3.33;3.33;;;;;;;;5022840;28;45536;-67
2021/12/27 10:15:03;;;;;;;;;5.67;5.67;;;;;;;;5004200;28;47281;-68
2021/12/27 10:17:34;;;;;;;;;8.67;5.00;;;;;;;;5004936;28;45293;-67
2021/12/27 10:20:19;;;;;;;;;4.33;4.33;;;;;;;;5022065;28;48093;-67
2021/12/27 10:22:46;;;;;;;;;5.67;5.67;;;;;;;;5023296;28;45434;-67
2021/12/27 10:25:17;;;;;;;;;6.67;6.67;;;;;;;;5021674;28;45608;-67
2021/12/27 10:27:42;;;;;;;;;4.67;4.67;;;;;;;;5021626;28;45462;-67
2021/12/27 10:30:13;;;;;;;;;10.00;6.33;;;;;;;;5021984;28;45413;-67
2021/12/27 10:32:38;;;;;;;;;3.00;2.33;;;;;;;;5023282;28;45415;-67
2021/12/27 10:35:05;;;;;;;;;8.00;5.33;;;;;;;;5021871;28;45788;-68
2021/12/27 10:37:31;;;;;;;;;7.67;6.00;;;;;;;;5021127;28;45423;-67
2021/12/27 10:40:03;;;;;;;;;10.67;10.67;;;;;;;;5022103;28;45480;-67
2021/12/27 10:42:29;;;;;;;;;5.00;5.00;;;;;;;;5023259;28;45236;-68
2021/12/27 10:44:57;;;;;;;;;6.67;5.00;;;;;;;;5021514;28;46542;-67
2021/12/27 10:47:29;;;;;;;;;8.00;8.00;;;;;;;;5022719;28;45379;-67
2021/12/27 10:50:01;;;;;;;;;6.67;5.00;;;;;;;;5021868;28;45387;-67
2021/12/27 10:52:39;;;;;;;;;7.33;6.67;;;;;;;;5004997;28;45577;-67
2021/12/27 10:55:05;;;;;;;;;4.00;4.00;;;;;;;;4998654;28;47088;-67
2021/12/27 10:57:30;;;;;;;;;5.00;4.33;;;;;;;;5022535;28;45264;-67
2021/12/27 11:00:13;;;;;;;;;6.67;6.67;;;;;;;;5021848;28;45378;-67
2021/12/27 11:02:38;;;;;;;;;4.33;4.00;;;;;;;;5013529;28;45323;-67
2021/12/27 11:05:17;;;;;;;;;3.00;3.00;;;;;;;;5021471;28;46373;-67
2021/12/27 11:07:42;;;;;;;;;5.33;5.00;;;;;;;;5004261;28;45747;-67
2021/12/27 11:10:08;;;;;;;;;6.33;4.00;;;;;;;;4998280;28;45407;-67
2021/12/27 11:12:33;;;;;;;;;5.67;4.00;;;;;;;;5021991;28;45453;-66
2021/12/27 11:14:58;;;;;;;;;8.67;8.00;;;;;;;;5022258;28;45398;-66
2021/12/27 11:17:24;;;;;;;;;5.00;5.00;;;;;;;;5023208;28;45351;-64
2021/12/27 11:19:49;;;;;;;;;4.33;4.33;;;;;;;;5022548;28;45379;-67
2021/12/27 11:22:14;;;;;;;;;6.67;6.67;;;;;;;;5025633;28;45470;-67
2021/12/27 11:24:40;;;;;;;;;7.67;7.67;;;;;;;;5024724;28;46674;-68
2021/12/27 11:27:09;;;;;;;;;6.33;6.33;;;;;;;;5025839;28;45425;-68
2021/12/27 11:29:34;;;;;;;;;4.00;4.00;;;;;;;;5024912;28;45434;-67
2021/12/27 11:32:10;;;;;;;;;4.00;4.00;;;;;;;;5024884;28;45226;-67
2021/12/27 11:34:55;;;;;;;;;7.33;5.33;;;;;;;;5006767;28;47265;-67
2021/12/27 11:37:20;;;;;;;;;2.67;2.00;;;;;;;;5025353;28;45500;-68
2021/12/27 11:39:45;;;;;;;;;8.50;5.50;;;;;;;;5024400;28;45524;-68
2021/12/27 11:42:12;;;;;;;;;6.33;6.33;;;;;;;;5026249;28;45291;-69
2021/12/27 11:44:53;;;;;;;;;7.33;6.00;;;;;;;;5024598;28;46072;-68
2021/12/27 11:47:23;;;;;;;;;7.67;7.67;;;;;;;;5005863;28;45283;-68
2021/12/27 11:49:51;;;;;;;;;9.33;7.00;;;;;;;;5024291;28;45501;-68
2021/12/27 11:52:23;;;;;;;;;5.67;5.67;;;;;;;;5024099;28;45618;-68
2021/12/27 11:55:05;;;;;;;;;2.00;2.00;;;;;;;;5024134;28;45942;-68
2021/12/27 11:57:37;;;;;;;;;8.67;5.67;;;;;;;;5025115;28;45205;-68
2021/12/27 12:00:28;;;;;;;;;10.67;8.00;;;;;;;;5024077;28;45376;-67
2021/12/27 12:02:55;;;;;;;;;8.33;8.00;;;;;;;;5018513;28;45347;-67
2021/12/27 12:05:39;;;;;;;;;1.67;1.67;;;;;;;;5024140;28;45449;-68
2021/12/27 12:08:06;;;;;;;;;3.67;3.67;;;;;;;;5022887;28;45507;-68
2021/12/27 12:10:31;;;;;;;;;5.00;5.00;;;;;;;;5018254;28;45371;-67
2021/12/27 12:13:15;;;;;;;;;3.67;3.67;;;;;;;;5025624;28;45254;-67
2021/12/27 12:15:59;;;;;;;;;3.00;3.00;;;;;;;;5024096;28;46467;-67
2021/12/27 12:18:24;;;;;;;;;5.00;5.00;;;;;;;;5007556;28;45412;-66
2021/12/27 12:20:49;;;;;;;;;3.33;3.33;;;;;;;;5026001;28;45407;-66
2021/12/27 12:23:15;;;;;;;;;4.00;3.00;;;;;;;;5025743;28;45366;-68
2021/12/27 12:25:40;;;;;;;;;1.67;1.00;;;;;;;;5023999;28;45433;-67
2021/12/27 12:28:10;;;;;;;;;4.33;3.00;;;;;;;;5025148;28;45373;-67
2021/12/27 12:30:37;;;;;;;;;3.00;3.00;;;;;;;;5002777;28;45392;-67
2021/12/27 12:33:05;;;;;;;;;4.33;4.00;;;;;;;;5023696;28;45543;-67
2021/12/27 12:35:33;;;;;;;;;2.00;2.00;;;;;;;;5019413;28;45469;-67
2021/12/27 12:38:30;;;;;;;;;2.33;2.33;;;;;;;;5023634;28;45331;-68
2021/12/27 12:41:20;;;;;;;;;3.00;3.00;;;;;;;;4990366;28;45723;-67
2021/12/27 12:43:45;;;;;;;;;0.67;0.67;;;;;;;;5023632;28;45336;-68
2021/12/27 12:46:11;;;;;;;;;2.00;2.00;;;;;;;;5006132;28;46747;-68
2021/12/27 12:48:36;;;;;;;;;2.33;2.33;;;;;;;;5023896;28;45382;-67
2021/12/27 12:51:02;;;;;;;;;2.00;2.00;;;;;;;;5024413;28;45314;-68
2021/12/27 12:53:31;;;;;;;;;3.33;3.00;;;;;;;;5024773;28;45377;-67
2021/12/27 12:56:05;;;;;;;;;3.33;3.33;;;;;;;;5023658;28;45862;-68
2021/12/27 12:58:38;;;;;;;;;2.00;2.00;;;;;;;;5023468;28;45211;-67
2021/12/27 13:01:04;;;;;;;;;5.67;2.00;;;;;;;;5001307;28;45361;-67
2021/12/27 13:03:30;;;;;;;;;4.00;2.00;;;;;;;;5023746;28;45355;-67
2021/12/27 13:05:56;;;;;;;;;2.67;2.67;;;;;;;;5023167;28;46058;-67
2021/12/27 13:08:21;;;;;;;;;1.67;1.67;;;;;;;;5022489;28;45352;-68
2021/12/27 13:10:47;;;;;;;;;3.33;2.00;;;;;;;;5021987;28;45307;-67
2021/12/27 13:13:13;;;;;;;;;2.67;2.67;;;;;;;;5024830;28;45550;-67
2021/12/27 13:15:39;;;;;;;;;2.00;0.67;;;;;;;;5023093;28;45479;-69
2021/12/27 13:18:08;;;;;;;;;4.00;3.67;;;;;;;;5023991;28;45212;-67
2021/12/27 13:20:37;;;;;;;;;3.33;2.33;;;;;;;;5021783;28;45397;-68
2021/12/27 13:23:04;;;;;;;;;5.00;3.33;;;;;;;;5016547;28;45309;-67
2021/12/27 13:25:32;;;;;;;;;3.00;3.00;;;;;;;;5019972;28;45448;-67
2021/12/27 13:28:16;;;;;;;;;2.33;2.00;;;;;;;;5022095;28;45455;-67
2021/12/27 13:30:44;;;;;;;;;3.67;2.00;;;;;;;;5021310;28;45376;-67
2021/12/27 13:33:10;;;;;;;;;5.00;2.00;;;;;;;;5020559;28;45338;-66
2021/12/27 13:35:35;;;;;;;;;2.67;2.67;;;;;;;;5020276;28;46156;-66
2021/12/27 13:38:00;;;;;;;;;4.00;2.00;;;;;;;;5021379;28;45628;-68
2021/12/27 13:40:25;;;;;;;;;2.67;2.67;;;;;;;;5019242;28;45546;-68
2021/12/27 13:42:50;;;;;;;;;4.00;3.00;;;;;;;;5021727;28;47180;-68
2021/12/27 13:45:16;;;;;;;;;5.00;3.00;;;;;;;;5018802;28;45441;-68
2021/12/27 13:47:51;;;;;;;;;1.67;1.67;;;;;;;;5004327;28;45357;-67
2021/12/27 13:50:24;;;;;;;;;5.00;5.00;;;;;;;;5019930;28;45402;-67
2021/12/27 13:52:49;;;;;;;;;3.00;1.33;;;;;;;;5021644;28;45298;-67
2021/12/27 13:55:25;;;;;;;;;3.33;3.00;;;;;;;;5018805;28;45415;-67
2021/12/27 13:57:50;;;;;;;;;6.00;3.67;;;;;;;;5021259;28;45453;-67
2021/12/27 14:00:15;;;;;;;;;5.00;3.33;;;;;;;;4997942;28;45305;-68
2021/12/27 14:02:43;;;;;;;;;3.00;3.00;;;;;;;;5004978;28;45218;-68
2021/12/27 14:05:09;;;;;;;;;5.00;2.67;;;;;;;;5020200;28;45430;-68
2021/12/27 14:07:34;;;;;;;;;5.33;3.67;;;;;;;;5022325;28;45389;-68
2021/12/27 14:09:59;;;;;;;;;2.67;2.67;;;;;;;;5018523;28;45417;-68
2021/12/27 14:12:30;;;;;;;;;3.00;2.67;;;;;;;;5005554;28;45494;-67
2021/12/27 14:15:01;;;;;;;;;4.00;2.33;;;;;;;;5002072;28;47206;-68
2021/12/27 14:17:28;;;;;;;;;6.67;3.67;;;;;;;;5023190;28;45338;-68
2021/12/27 14:20:02;;;;;;;;;5.67;3.00;;;;;;;;5012726;28;45391;-68
2021/12/27 14:22:38;;;;;;;;;9.33;4.33;;;;;;;;5023498;28;45751;-69
2021/12/27 14:25:05;;;;;;;;;0.00;0.00;;;;;;;;5013690;28;46042;-67
2021/12/27 14:27:35;;;;;;;;;7.00;5.00;;;;;;;;5015130;28;45338;-67
2021/12/27 14:30:01;;;;;;;;;5.67;4.00;;;;;;;;5000383;28;45440;-67
2021/12/27 14:32:26;;;;;;;;;5.00;5.00;;;;;;;;5023482;28;45325;-67
2021/12/27 14:34:53;;;;;;;;;5.00;4.00;;;;;;;;4994286;28;46898;-69
2021/12/27 14:37:18;;;;;;;;;8.00;4.33;;;;;;;;5022261;28;45526;-69
2021/12/27 14:39:44;;;;;;;;;7.00;3.00;;;;;;;;5016031;28;45450;-65
2021/12/27 14:42:11;;;;;;;;;2.67;2.67;;;;;;;;5022758;28;45280;-66
2021/12/27 14:44:40;;;;;;;;;7.33;4.33;;;;;;;;5003438;28;47108;-66